sensor_id;sensor_type;location;lat;lon;timestamp;P1;durP1;ratioP1;P2;durP2;ratioP2
2416;SDS011;1219;48.736;9.330;2023-06-04T00:01:42;8.20;;;7.00;;
2416;SDS011;1219;48.736;9.330;2023-06-04T00:04:10;7.67;;;6.80;;
2416;SDS011;1219;48.736;9.330;2023-06-04T00:06:36;8.03;;;7.20;;
2416;SDS011;1219;48.736;9.330;2023-06-04T00:09:02;7.13;;;6.33;;
2416;SDS011;1219;48.736;9.330;2023-06-04T00:11:28;7.23;;;6.40;;
2416;SDS011;1219;48.736;9.330;2023-06-04T00:13:54;7.83;;;6.70;;
2416;SDS011;1219;48.736;9.330;2023-06-04T00:16:20;6.90;;;6.20;;
2416;SDS011;1219;48.736;9.330;2023-06-04T00:18:46;9.87;;;7.60;;
2416;SDS011;1219;48.736;9.330;2023-06-04T00:21:12;7.53;;;6.80;;
2416;SDS011;1219;48.736;9.330;2023-06-04T00:23:38;7.57;;;6.87;;
2416;SDS011;1219;48.736;9.330;2023-06-04T00:26:04;7.17;;;6.23;;
2416;SDS011;1219;48.736;9.330;2023-06-04T00:28:30;6.53;;;5.93;;
2416;SDS011;1219;48.736;9.330;2023-06-04T00:30:56;7.70;;;7.10;;
2416;SDS011;1219;48.736;9.330;2023-06-04T00:33:22;6.97;;;6.33;;
2416;SDS011;1219;48.736;9.330;2023-06-04T00:35:48;7.13;;;5.90;;
2416;SDS011;1219;48.736;9.330;2023-06-04T00:38:14;6.20;;;5.70;;
2416;SDS011;1219;48.736;9.330;2023-06-04T00:40:40;6.67;;;5.87;;
2416;SDS011;1219;48.736;9.330;2023-06-04T00:43:06;6.10;;;5.60;;
2416;SDS011;1219;48.736;9.330;2023-06-04T00:45:32;8.83;;;5.97;;
2416;SDS011;1219;48.736;9.330;2023-06-04T00:47:58;7.13;;;6.53;;
2416;SDS011;1219;48.736;9.330;2023-06-04T00:50:24;6.30;;;5.80;;
2416;SDS011;1219;48.736;9.330;2023-06-04T00:52:50;7.67;;;5.37;;
2416;SDS011;1219;48.736;9.330;2023-06-04T00:55:17;5.67;;;5.27;;
2416;SDS011;1219;48.736;9.330;2023-06-04T00:57:43;5.27;;;4.87;;
2416;SDS011;1219;48.736;9.330;2023-06-04T01:00:09;9.87;;;5.87;;
2416;SDS011;1219;48.736;9.330;2023-06-04T01:02:37;6.80;;;5.60;;
2416;SDS011;1219;48.736;9.330;2023-06-04T01:05:07;6.93;;;6.20;;
2416;SDS011;1219;48.736;9.330;2023-06-04T01:07:35;5.90;;;5.40;;
2416;SDS011;1219;48.736;9.330;2023-06-04T01:10:01;5.53;;;5.03;;
2416;SDS011;1219;48.736;9.330;2023-06-04T01:12:27;7.03;;;6.37;;
2416;SDS011;1219;48.736;9.330;2023-06-04T01:14:53;6.03;;;5.50;;
2416;SDS011;1219;48.736;9.330;2023-06-04T01:17:23;5.03;;;4.73;;
2416;SDS011;1219;48.736;9.330;2023-06-04T01:22:43;5.70;;;5.07;;
2416;SDS011;1219;48.736;9.330;2023-06-04T01:25:52;5.87;;;5.37;;
2416;SDS011;1219;48.736;9.330;2023-06-04T01:27:59;4.70;;;4.23;;
2416;SDS011;1219;48.736;9.330;2023-06-04T01:30:32;6.20;;;5.60;;
2416;SDS011;1219;48.736;9.330;2023-06-04T01:32:59;5.50;;;4.93;;
2416;SDS011;1219;48.736;9.330;2023-06-04T01:35:26;6.00;;;5.40;;
2416;SDS011;1219;48.736;9.330;2023-06-04T01:37:52;4.50;;;4.10;;
2416;SDS011;1219;48.736;9.330;2023-06-04T01:40:19;8.43;;;5.17;;
2416;SDS011;1219;48.736;9.330;2023-06-04T01:42:45;5.33;;;4.87;;
2416;SDS011;1219;48.736;9.330;2023-06-04T01:45:11;6.63;;;5.20;;
2416;SDS011;1219;48.736;9.330;2023-06-04T01:47:37;5.07;;;4.67;;
2416;SDS011;1219;48.736;9.330;2023-06-04T01:50:04;4.57;;;4.17;;
2416;SDS011;1219;48.736;9.330;2023-06-04T01:52:34;6.93;;;5.40;;
2416;SDS011;1219;48.736;9.330;2023-06-04T01:55:00;4.90;;;4.37;;
2416;SDS011;1219;48.736;9.330;2023-06-04T01:57:27;6.10;;;5.50;;
2416;SDS011;1219;48.736;9.330;2023-06-04T01:59:53;5.30;;;4.80;;
2416;SDS011;1219;48.736;9.330;2023-06-04T02:02:19;5.40;;;4.90;;
2416;SDS011;1219;48.736;9.330;2023-06-04T02:04:44;6.83;;;5.30;;
2416;SDS011;1219;48.736;9.330;2023-06-04T02:07:11;6.00;;;5.50;;
2416;SDS011;1219;48.736;9.330;2023-06-04T02:09:42;5.10;;;4.70;;
2416;SDS011;1219;48.736;9.330;2023-06-04T02:12:08;5.00;;;4.60;;
2416;SDS011;1219;48.736;9.330;2023-06-04T02:14:34;6.70;;;6.10;;
2416;SDS011;1219;48.736;9.330;2023-06-04T02:17:02;5.40;;;4.90;;
2416;SDS011;1219;48.736;9.330;2023-06-04T02:19:29;8.70;;;5.33;;
2416;SDS011;1219;48.736;9.330;2023-06-04T02:21:58;5.37;;;4.80;;
2416;SDS011;1219;48.736;9.330;2023-06-04T02:24:24;6.60;;;5.67;;
2416;SDS011;1219;48.736;9.330;2023-06-04T02:26:50;5.90;;;5.40;;
2416;SDS011;1219;48.736;9.330;2023-06-04T02:29:16;6.07;;;5.47;;
2416;SDS011;1219;48.736;9.330;2023-06-04T02:31:42;5.97;;;5.47;;
2416;SDS011;1219;48.736;9.330;2023-06-04T02:34:08;5.93;;;4.67;;
2416;SDS011;1219;48.736;9.330;2023-06-04T02:36:34;5.13;;;4.73;;
2416;SDS011;1219;48.736;9.330;2023-06-04T02:39:00;4.57;;;4.27;;
2416;SDS011;1219;48.736;9.330;2023-06-04T02:41:26;4.13;;;3.83;;
2416;SDS011;1219;48.736;9.330;2023-06-04T02:43:52;5.33;;;4.83;;
2416;SDS011;1219;48.736;9.330;2023-06-04T02:46:18;5.80;;;4.80;;
2416;SDS011;1219;48.736;9.330;2023-06-04T02:48:44;5.17;;;4.67;;
2416;SDS011;1219;48.736;9.330;2023-06-04T02:51:10;5.30;;;4.60;;
2416;SDS011;1219;48.736;9.330;2023-06-04T02:53:36;5.93;;;5.03;;
2416;SDS011;1219;48.736;9.330;2023-06-04T02:56:02;6.60;;;4.70;;
2416;SDS011;1219;48.736;9.330;2023-06-04T02:58:28;10.80;;;5.90;;
2416;SDS011;1219;48.736;9.330;2023-06-04T03:00:56;5.57;;;5.03;;
2416;SDS011;1219;48.736;9.330;2023-06-04T03:03:22;7.03;;;6.53;;
2416;SDS011;1219;48.736;9.330;2023-06-04T03:05:48;4.83;;;4.33;;
2416;SDS011;1219;48.736;9.330;2023-06-04T03:08:14;4.73;;;4.33;;
2416;SDS011;1219;48.736;9.330;2023-06-04T03:10:40;4.83;;;4.53;;
2416;SDS011;1219;48.736;9.330;2023-06-04T03:13:06;4.97;;;4.43;;
2416;SDS011;1219;48.736;9.330;2023-06-04T03:15:32;7.53;;;5.40;;
2416;SDS011;1219;48.736;9.330;2023-06-04T03:17:58;5.43;;;4.97;;
2416;SDS011;1219;48.736;9.330;2023-06-04T03:20:24;4.90;;;4.47;;
2416;SDS011;1219;48.736;9.330;2023-06-04T03:22:50;5.50;;;4.50;;
2416;SDS011;1219;48.736;9.330;2023-06-04T03:25:16;8.97;;;5.50;;
2416;SDS011;1219;48.736;9.330;2023-06-04T03:27:42;7.50;;;4.90;;
2416;SDS011;1219;48.736;9.330;2023-06-04T03:30:08;4.90;;;4.43;;
2416;SDS011;1219;48.736;9.330;2023-06-04T03:32:35;6.03;;;5.53;;
2416;SDS011;1219;48.736;9.330;2023-06-04T03:35:01;5.53;;;4.97;;
2416;SDS011;1219;48.736;9.330;2023-06-04T03:37:28;6.90;;;4.80;;
2416;SDS011;1219;48.736;9.330;2023-06-04T03:39:54;5.20;;;4.80;;
2416;SDS011;1219;48.736;9.330;2023-06-04T03:42:20;5.73;;;5.23;;
2416;SDS011;1219;48.736;9.330;2023-06-04T03:44:46;7.27;;;5.20;;
2416;SDS011;1219;48.736;9.330;2023-06-04T03:47:12;5.60;;;5.10;;
2416;SDS011;1219;48.736;9.330;2023-06-04T03:49:38;5.40;;;4.90;;
2416;SDS011;1219;48.736;9.330;2023-06-04T03:52:04;5.37;;;4.87;;
2416;SDS011;1219;48.736;9.330;2023-06-04T03:54:30;7.17;;;5.77;;
2416;SDS011;1219;48.736;9.330;2023-06-04T03:56:55;6.60;;;5.20;;
2416;SDS011;1219;48.736;9.330;2023-06-04T03:59:21;5.20;;;4.70;;
2416;SDS011;1219;48.736;9.330;2023-06-04T04:01:47;6.50;;;5.20;;
2416;SDS011;1219;48.736;9.330;2023-06-04T04:04:13;5.27;;;4.77;;
2416;SDS011;1219;48.736;9.330;2023-06-04T04:06:39;5.10;;;4.60;;
2416;SDS011;1219;48.736;9.330;2023-06-04T04:09:06;5.80;;;5.30;;
2416;SDS011;1219;48.736;9.330;2023-06-04T04:11:32;5.30;;;4.90;;
2416;SDS011;1219;48.736;9.330;2023-06-04T04:13:58;6.20;;;4.97;;
2416;SDS011;1219;48.736;9.330;2023-06-04T04:16:25;5.60;;;4.70;;
2416;SDS011;1219;48.736;9.330;2023-06-04T04:18:52;5.40;;;4.87;;
2416;SDS011;1219;48.736;9.330;2023-06-04T04:21:19;7.00;;;5.30;;
2416;SDS011;1219;48.736;9.330;2023-06-04T04:23:45;6.13;;;5.53;;
2416;SDS011;1219;48.736;9.330;2023-06-04T04:26:12;5.10;;;4.70;;
2416;SDS011;1219;48.736;9.330;2023-06-04T04:28:41;6.37;;;4.93;;
2416;SDS011;1219;48.736;9.330;2023-06-04T04:31:08;5.20;;;4.80;;
2416;SDS011;1219;48.736;9.330;2023-06-04T04:33:35;5.40;;;4.80;;
2416;SDS011;1219;48.736;9.330;2023-06-04T04:36:04;6.10;;;5.23;;
2416;SDS011;1219;48.736;9.330;2023-06-04T04:38:30;6.10;;;4.50;;
2416;SDS011;1219;48.736;9.330;2023-06-04T04:40:58;5.10;;;4.70;;
2416;SDS011;1219;48.736;9.330;2023-06-04T04:43:32;5.40;;;4.60;;
2416;SDS011;1219;48.736;9.330;2023-06-04T04:45:58;10.47;;;4.60;;
2416;SDS011;1219;48.736;9.330;2023-06-04T04:48:24;5.17;;;4.67;;
2416;SDS011;1219;48.736;9.330;2023-06-04T04:50:51;6.60;;;5.00;;
2416;SDS011;1219;48.736;9.330;2023-06-04T04:53:17;5.60;;;5.10;;
2416;SDS011;1219;48.736;9.330;2023-06-04T04:55:43;6.50;;;5.07;;
2416;SDS011;1219;48.736;9.330;2023-06-04T04:58:09;5.30;;;4.20;;
2416;SDS011;1219;48.736;9.330;2023-06-04T05:00:35;8.30;;;4.80;;
2416;SDS011;1219;48.736;9.330;2023-06-04T05:03:01;5.27;;;4.77;;
2416;SDS011;1219;48.736;9.330;2023-06-04T05:05:27;5.70;;;5.20;;
2416;SDS011;1219;48.736;9.330;2023-06-04T05:07:53;4.90;;;4.50;;
2416;SDS011;1219;48.736;9.330;2023-06-04T05:10:19;5.00;;;4.40;;
2416;SDS011;1219;48.736;9.330;2023-06-04T05:12:56;5.33;;;4.80;;
2416;SDS011;1219;48.736;9.330;2023-06-04T05:15:22;5.83;;;5.47;;
2416;SDS011;1219;48.736;9.330;2023-06-04T05:17:49;5.50;;;4.93;;
2416;SDS011;1219;48.736;9.330;2023-06-04T05:20:17;4.97;;;4.47;;
2416;SDS011;1219;48.736;9.330;2023-06-04T05:22:44;5.03;;;4.37;;
2416;SDS011;1219;48.736;9.330;2023-06-04T05:25:13;5.23;;;4.80;;
2416;SDS011;1219;48.736;9.330;2023-06-04T05:27:39;6.97;;;5.10;;
2416;SDS011;1219;48.736;9.330;2023-06-04T05:30:05;4.63;;;4.23;;
2416;SDS011;1219;48.736;9.330;2023-06-04T05:32:32;5.50;;;5.00;;
2416;SDS011;1219;48.736;9.330;2023-06-04T05:34:58;5.00;;;4.50;;
2416;SDS011;1219;48.736;9.330;2023-06-04T05:37:24;4.47;;;4.03;;
2416;SDS011;1219;48.736;9.330;2023-06-04T05:39:54;4.67;;;4.10;;
2416;SDS011;1219;48.736;9.330;2023-06-04T05:42:21;5.67;;;4.87;;
2416;SDS011;1219;48.736;9.330;2023-06-04T05:44:47;7.37;;;4.80;;
2416;SDS011;1219;48.736;9.330;2023-06-04T05:47:13;4.63;;;3.67;;
2416;SDS011;1219;48.736;9.330;2023-06-04T05:49:40;3.93;;;3.60;;
2416;SDS011;1219;48.736;9.330;2023-06-04T05:52:07;3.00;;;2.70;;
2416;SDS011;1219;48.736;9.330;2023-06-04T05:54:33;6.20;;;3.63;;
2416;SDS011;1219;48.736;9.330;2023-06-04T05:56:59;4.93;;;3.37;;
2416;SDS011;1219;48.736;9.330;2023-06-04T05:59:26;3.73;;;3.33;;
2416;SDS011;1219;48.736;9.330;2023-06-04T06:01:52;3.17;;;2.97;;
2416;SDS011;1219;48.736;9.330;2023-06-04T06:04:18;3.97;;;3.63;;
2416;SDS011;1219;48.736;9.330;2023-06-04T06:06:45;4.30;;;4.00;;
2416;SDS011;1219;48.736;9.330;2023-06-04T06:09:16;3.90;;;3.60;;
2416;SDS011;1219;48.736;9.330;2023-06-04T06:11:43;5.40;;;3.37;;
2416;SDS011;1219;48.736;9.330;2023-06-04T06:14:09;2.90;;;2.67;;
2416;SDS011;1219;48.736;9.330;2023-06-04T06:16:35;3.50;;;3.20;;
2416;SDS011;1219;48.736;9.330;2023-06-04T06:19:01;12.80;;;3.73;;
2416;SDS011;1219;48.736;9.330;2023-06-04T06:21:27;2.90;;;2.70;;
2416;SDS011;1219;48.736;9.330;2023-06-04T06:23:53;5.57;;;3.40;;
2416;SDS011;1219;48.736;9.330;2023-06-04T06:26:19;4.27;;;3.50;;
2416;SDS011;1219;48.736;9.330;2023-06-04T06:28:47;3.77;;;3.40;;
2416;SDS011;1219;48.736;9.330;2023-06-04T06:31:13;4.03;;;3.33;;
2416;SDS011;1219;48.736;9.330;2023-06-04T06:33:38;3.53;;;3.23;;
2416;SDS011;1219;48.736;9.330;2023-06-04T06:36:06;7.13;;;2.60;;
2416;SDS011;1219;48.736;9.330;2023-06-04T06:38:32;2.60;;;2.40;;
2416;SDS011;1219;48.736;9.330;2023-06-04T06:40:58;5.13;;;2.93;;
2416;SDS011;1219;48.736;9.330;2023-06-04T06:43:23;3.13;;;2.53;;
2416;SDS011;1219;48.736;9.330;2023-06-04T06:45:49;3.13;;;2.93;;
2416;SDS011;1219;48.736;9.330;2023-06-04T06:48:15;5.63;;;3.00;;
2416;SDS011;1219;48.736;9.330;2023-06-04T06:50:41;3.93;;;2.57;;
2416;SDS011;1219;48.736;9.330;2023-06-04T06:53:07;3.50;;;3.20;;
2416;SDS011;1219;48.736;9.330;2023-06-04T06:55:33;2.97;;;2.67;;
2416;SDS011;1219;48.736;9.330;2023-06-04T06:57:59;2.90;;;2.60;;
2416;SDS011;1219;48.736;9.330;2023-06-04T07:00:26;6.70;;;3.13;;
2416;SDS011;1219;48.736;9.330;2023-06-04T07:02:53;3.77;;;3.33;;
2416;SDS011;1219;48.736;9.330;2023-06-04T07:05:19;3.13;;;2.87;;
2416;SDS011;1219;48.736;9.330;2023-06-04T07:07:45;4.57;;;2.50;;
2416;SDS011;1219;48.736;9.330;2023-06-04T07:10:11;2.37;;;2.17;;
2416;SDS011;1219;48.736;9.330;2023-06-04T07:12:38;2.77;;;2.57;;
2416;SDS011;1219;48.736;9.330;2023-06-04T07:15:05;4.23;;;2.10;;
2416;SDS011;1219;48.736;9.330;2023-06-04T07:17:31;3.30;;;2.97;;
2416;SDS011;1219;48.736;9.330;2023-06-04T07:19:57;3.53;;;3.10;;
2416;SDS011;1219;48.736;9.330;2023-06-04T07:22:23;3.00;;;2.30;;
2416;SDS011;1219;48.736;9.330;2023-06-04T07:24:49;2.50;;;2.30;;
2416;SDS011;1219;48.736;9.330;2023-06-04T07:27:15;6.63;;;2.97;;
2416;SDS011;1219;48.736;9.330;2023-06-04T07:29:42;4.50;;;2.37;;
2416;SDS011;1219;48.736;9.330;2023-06-04T07:32:09;5.83;;;3.40;;
2416;SDS011;1219;48.736;9.330;2023-06-04T07:34:35;3.47;;;2.70;;
2416;SDS011;1219;48.736;9.330;2023-06-04T07:37:02;3.10;;;2.90;;
2416;SDS011;1219;48.736;9.330;2023-06-04T07:39:28;3.47;;;3.17;;
2416;SDS011;1219;48.736;9.330;2023-06-04T07:41:54;2.60;;;2.40;;
2416;SDS011;1219;48.736;9.330;2023-06-04T07:44:20;3.00;;;2.80;;
2416;SDS011;1219;48.736;9.330;2023-06-04T07:46:46;2.87;;;2.67;;
2416;SDS011;1219;48.736;9.330;2023-06-04T07:49:12;2.37;;;2.17;;
2416;SDS011;1219;48.736;9.330;2023-06-04T07:51:37;5.70;;;2.90;;
2416;SDS011;1219;48.736;9.330;2023-06-04T07:54:03;3.17;;;2.87;;
2416;SDS011;1219;48.736;9.330;2023-06-04T07:56:29;2.60;;;2.40;;
2416;SDS011;1219;48.736;9.330;2023-06-04T07:58:55;3.50;;;3.00;;
2416;SDS011;1219;48.736;9.330;2023-06-04T08:01:21;2.97;;;2.07;;
2416;SDS011;1219;48.736;9.330;2023-06-04T08:03:48;3.20;;;2.90;;
2416;SDS011;1219;48.736;9.330;2023-06-04T08:06:15;3.10;;;2.90;;
2416;SDS011;1219;48.736;9.330;2023-06-04T08:08:44;4.20;;;2.20;;
2416;SDS011;1219;48.736;9.330;2023-06-04T08:11:15;2.97;;;2.77;;
2416;SDS011;1219;48.736;9.330;2023-06-04T08:13:41;4.00;;;2.50;;
2416;SDS011;1219;48.736;9.330;2023-06-04T08:16:09;4.37;;;3.03;;
2416;SDS011;1219;48.736;9.330;2023-06-04T08:18:38;3.53;;;3.00;;
2416;SDS011;1219;48.736;9.330;2023-06-04T08:21:04;3.20;;;2.73;;
2416;SDS011;1219;48.736;9.330;2023-06-04T08:23:31;2.80;;;2.57;;
2416;SDS011;1219;48.736;9.330;2023-06-04T08:25:57;3.10;;;2.30;;
2416;SDS011;1219;48.736;9.330;2023-06-04T08:28:23;3.07;;;2.10;;
2416;SDS011;1219;48.736;9.330;2023-06-04T08:30:49;2.87;;;2.57;;
2416;SDS011;1219;48.736;9.330;2023-06-04T08:33:15;3.03;;;2.60;;
2416;SDS011;1219;48.736;9.330;2023-06-04T08:35:41;2.67;;;2.30;;
2416;SDS011;1219;48.736;9.330;2023-06-04T08:38:07;2.90;;;2.60;;
2416;SDS011;1219;48.736;9.330;2023-06-04T08:40:33;4.97;;;2.60;;
2416;SDS011;1219;48.736;9.330;2023-06-04T08:43:02;3.83;;;2.60;;
2416;SDS011;1219;48.736;9.330;2023-06-04T08:45:30;2.87;;;2.43;;
2416;SDS011;1219;48.736;9.330;2023-06-04T08:47:58;4.87;;;2.43;;
2416;SDS011;1219;48.736;9.330;2023-06-04T08:50:24;3.53;;;2.97;;
2416;SDS011;1219;48.736;9.330;2023-06-04T08:52:54;2.70;;;2.50;;
2416;SDS011;1219;48.736;9.330;2023-06-04T08:55:20;2.70;;;2.50;;
2416;SDS011;1219;48.736;9.330;2023-06-04T08:57:47;4.23;;;3.03;;
2416;SDS011;1219;48.736;9.330;2023-06-04T09:00:16;2.80;;;2.60;;
2416;SDS011;1219;48.736;9.330;2023-06-04T09:02:43;3.50;;;2.60;;
2416;SDS011;1219;48.736;9.330;2023-06-04T09:05:09;2.70;;;2.50;;
2416;SDS011;1219;48.736;9.330;2023-06-04T09:07:36;2.50;;;2.30;;
2416;SDS011;1219;48.736;9.330;2023-06-04T09:10:02;3.20;;;3.00;;
2416;SDS011;1219;48.736;9.330;2023-06-04T09:12:30;2.90;;;2.70;;
2416;SDS011;1219;48.736;9.330;2023-06-04T09:14:56;3.10;;;2.80;;
2416;SDS011;1219;48.736;9.330;2023-06-04T09:17:22;2.90;;;2.60;;
2416;SDS011;1219;48.736;9.330;2023-06-04T09:19:49;3.17;;;2.40;;
2416;SDS011;1219;48.736;9.330;2023-06-04T09:22:15;2.93;;;2.73;;
2416;SDS011;1219;48.736;9.330;2023-06-04T09:24:45;5.20;;;2.90;;
2416;SDS011;1219;48.736;9.330;2023-06-04T09:29:38;4.27;;;3.17;;
2416;SDS011;1219;48.736;9.330;2023-06-04T09:32:04;2.50;;;2.30;;
2416;SDS011;1219;48.736;9.330;2023-06-04T09:34:30;5.40;;;2.73;;
2416;SDS011;1219;48.736;9.330;2023-06-04T09:36:56;3.90;;;3.40;;
2416;SDS011;1219;48.736;9.330;2023-06-04T09:39:22;4.10;;;3.07;;
2416;SDS011;1219;48.736;9.330;2023-06-04T09:42:01;5.03;;;2.93;;
2416;SDS011;1219;48.736;9.330;2023-06-04T09:44:28;2.87;;;2.60;;
2416;SDS011;1219;48.736;9.330;2023-06-04T09:46:57;3.60;;;2.73;;
2416;SDS011;1219;48.736;9.330;2023-06-04T09:49:23;3.20;;;2.90;;
2416;SDS011;1219;48.736;9.330;2023-06-04T09:51:50;3.13;;;2.90;;
2416;SDS011;1219;48.736;9.330;2023-06-04T09:54:16;4.10;;;3.33;;
2416;SDS011;1219;48.736;9.330;2023-06-04T09:56:42;3.03;;;2.70;;
2416;SDS011;1219;48.736;9.330;2023-06-04T09:59:08;3.10;;;2.87;;
2416;SDS011;1219;48.736;9.330;2023-06-04T10:01:35;3.40;;;3.10;;
2416;SDS011;1219;48.736;9.330;2023-06-04T10:04:03;4.97;;;3.50;;
2416;SDS011;1219;48.736;9.330;2023-06-04T10:06:33;8.10;;;2.90;;
2416;SDS011;1219;48.736;9.330;2023-06-04T10:08:59;3.90;;;3.40;;
2416;SDS011;1219;48.736;9.330;2023-06-04T10:11:31;5.20;;;2.90;;
2416;SDS011;1219;48.736;9.330;2023-06-04T10:14:00;4.93;;;3.23;;
2416;SDS011;1219;48.736;9.330;2023-06-04T10:16:29;4.17;;;3.77;;
2416;SDS011;1219;48.736;9.330;2023-06-04T10:18:56;3.20;;;3.00;;
2416;SDS011;1219;48.736;9.330;2023-06-04T10:21:23;4.30;;;3.10;;
2416;SDS011;1219;48.736;9.330;2023-06-04T10:23:49;3.37;;;3.07;;
2416;SDS011;1219;48.736;9.330;2023-06-04T10:26:15;5.43;;;3.40;;
2416;SDS011;1219;48.736;9.330;2023-06-04T10:28:42;4.83;;;2.77;;
2416;SDS011;1219;48.736;9.330;2023-06-04T10:31:09;3.00;;;2.70;;
2416;SDS011;1219;48.736;9.330;2023-06-04T10:33:35;3.37;;;3.07;;
2416;SDS011;1219;48.736;9.330;2023-06-04T10:36:15;3.27;;;3.07;;
2416;SDS011;1219;48.736;9.330;2023-06-04T10:38:44;3.50;;;3.20;;
2416;SDS011;1219;48.736;9.330;2023-06-04T10:41:12;3.70;;;3.00;;
2416;SDS011;1219;48.736;9.330;2023-06-04T10:43:39;3.67;;;3.37;;
2416;SDS011;1219;48.736;9.330;2023-06-04T10:46:12;4.50;;;2.77;;
2416;SDS011;1219;48.736;9.330;2023-06-04T10:48:48;3.87;;;3.30;;
2416;SDS011;1219;48.736;9.330;2023-06-04T10:51:15;2.90;;;2.67;;
2416;SDS011;1219;48.736;9.330;2023-06-04T10:53:41;3.57;;;3.37;;
2416;SDS011;1219;48.736;9.330;2023-06-04T10:56:07;3.33;;;3.03;;
2416;SDS011;1219;48.736;9.330;2023-06-04T10:58:33;3.67;;;3.40;;
2416;SDS011;1219;48.736;9.330;2023-06-04T11:00:59;3.70;;;3.20;;
2416;SDS011;1219;48.736;9.330;2023-06-04T11:03:34;3.47;;;3.20;;
2416;SDS011;1219;48.736;9.330;2023-06-04T11:06:01;5.77;;;3.77;;
2416;SDS011;1219;48.736;9.330;2023-06-04T11:08:28;3.53;;;3.33;;
2416;SDS011;1219;48.736;9.330;2023-06-04T11:10:54;5.87;;;3.37;;
2416;SDS011;1219;48.736;9.330;2023-06-04T11:13:24;3.73;;;3.40;;
2416;SDS011;1219;48.736;9.330;2023-06-04T11:15:50;2.80;;;2.60;;
2416;SDS011;1219;48.736;9.330;2023-06-04T11:18:17;3.90;;;2.67;;
2416;SDS011;1219;48.736;9.330;2023-06-04T11:20:44;2.80;;;2.60;;
2416;SDS011;1219;48.736;9.330;2023-06-04T11:23:11;5.83;;;3.17;;
2416;SDS011;1219;48.736;9.330;2023-06-04T11:25:37;3.30;;;3.10;;
2416;SDS011;1219;48.736;9.330;2023-06-04T11:28:03;4.20;;;3.90;;
2416;SDS011;1219;48.736;9.330;2023-06-04T11:30:29;5.83;;;3.23;;
2416;SDS011;1219;48.736;9.330;2023-06-04T11:33:05;3.10;;;2.90;;
2416;SDS011;1219;48.736;9.330;2023-06-04T11:35:31;4.10;;;3.13;;
2416;SDS011;1219;48.736;9.330;2023-06-04T11:38:05;3.63;;;3.33;;
2416;SDS011;1219;48.736;9.330;2023-06-04T11:40:31;3.80;;;3.50;;
2416;SDS011;1219;48.736;9.330;2023-06-04T11:42:57;3.70;;;3.17;;
2416;SDS011;1219;48.736;9.330;2023-06-04T11:45:23;4.03;;;2.83;;
2416;SDS011;1219;48.736;9.330;2023-06-04T11:47:54;3.27;;;3.00;;
2416;SDS011;1219;48.736;9.330;2023-06-04T11:50:21;3.17;;;2.87;;
2416;SDS011;1219;48.736;9.330;2023-06-04T11:52:48;2.40;;;2.20;;
2416;SDS011;1219;48.736;9.330;2023-06-04T11:55:14;2.70;;;2.50;;
2416;SDS011;1219;48.736;9.330;2023-06-04T11:57:42;3.33;;;3.10;;
2416;SDS011;1219;48.736;9.330;2023-06-04T12:00:08;3.70;;;2.70;;
2416;SDS011;1219;48.736;9.330;2023-06-04T12:02:38;3.30;;;3.00;;
2416;SDS011;1219;48.736;9.330;2023-06-04T12:05:14;3.57;;;3.27;;
2416;SDS011;1219;48.736;9.330;2023-06-04T12:07:41;3.95;;;3.55;;
2416;SDS011;1219;48.736;9.330;2023-06-04T12:10:10;4.47;;;3.05;;
2416;SDS011;1219;48.736;9.330;2023-06-04T12:12:39;3.53;;;3.22;;
2416;SDS011;1219;48.736;9.330;2023-06-04T12:15:08;3.75;;;3.13;;
2416;SDS011;1219;48.736;9.330;2023-06-04T12:17:35;3.20;;;3.00;;
2416;SDS011;1219;48.736;9.330;2023-06-04T12:20:01;2.97;;;2.78;;
2416;SDS011;1219;48.736;9.330;2023-06-04T12:22:28;2.90;;;2.70;;
2416;SDS011;1219;48.736;9.330;2023-06-04T12:24:55;3.28;;;3.08;;
2416;SDS011;1219;48.736;9.330;2023-06-04T12:27:22;5.97;;;2.83;;
2416;SDS011;1219;48.736;9.330;2023-06-04T12:32:22;5.57;;;3.13;;
2416;SDS011;1219;48.736;9.330;2023-06-04T12:34:48;3.00;;;2.80;;
2416;SDS011;1219;48.736;9.330;2023-06-04T12:37:14;2.97;;;2.70;;
2416;SDS011;1219;48.736;9.330;2023-06-04T12:39:40;3.53;;;3.20;;
2416;SDS011;1219;48.736;9.330;2023-06-04T12:42:06;3.07;;;2.87;;
2416;SDS011;1219;48.736;9.330;2023-06-04T12:44:36;3.50;;;2.83;;
2416;SDS011;1219;48.736;9.330;2023-06-04T12:47:02;3.03;;;2.83;;
2416;SDS011;1219;48.736;9.330;2023-06-04T12:49:28;5.05;;;2.80;;
2416;SDS011;1219;48.736;9.330;2023-06-04T12:51:54;3.13;;;2.60;;
2416;SDS011;1219;48.736;9.330;2023-06-04T12:54:20;4.88;;;2.78;;
2416;SDS011;1219;48.736;9.330;2023-06-04T12:56:46;2.95;;;2.75;;
2416;SDS011;1219;48.736;9.330;2023-06-04T12:59:12;2.80;;;2.50;;
2416;SDS011;1219;48.736;9.330;2023-06-04T13:01:38;4.38;;;3.08;;
2416;SDS011;1219;48.736;9.330;2023-06-04T13:04:04;3.15;;;2.75;;
2416;SDS011;1219;48.736;9.330;2023-06-04T13:06:31;3.72;;;2.03;;
2416;SDS011;1219;48.736;9.330;2023-06-04T13:08:57;3.65;;;3.35;;
2416;SDS011;1219;48.736;9.330;2023-06-04T13:11:23;2.80;;;2.60;;
2416;SDS011;1219;48.736;9.330;2023-06-04T13:13:49;4.47;;;2.63;;
2416;SDS011;1219;48.736;9.330;2023-06-04T13:16:15;4.57;;;3.17;;
2416;SDS011;1219;48.736;9.330;2023-06-04T13:18:41;2.50;;;2.30;;
2416;SDS011;1219;48.736;9.330;2023-06-04T13:21:07;3.17;;;2.88;;
2416;SDS011;1219;48.736;9.330;2023-06-04T13:23:33;2.50;;;2.30;;
2416;SDS011;1219;48.736;9.330;2023-06-04T13:25:59;2.58;;;2.38;;
2416;SDS011;1219;48.736;9.330;2023-06-04T13:28:26;2.60;;;2.40;;
2416;SDS011;1219;48.736;9.330;2023-06-04T13:30:52;4.78;;;3.15;;
2416;SDS011;1219;48.736;9.330;2023-06-04T13:33:17;3.22;;;3.03;;
2416;SDS011;1219;48.736;9.330;2023-06-04T13:35:45;2.65;;;2.45;;
2416;SDS011;1219;48.736;9.330;2023-06-04T13:38:11;2.60;;;2.50;;
2416;SDS011;1219;48.736;9.330;2023-06-04T13:40:37;5.60;;;2.58;;
2416;SDS011;1219;48.736;9.330;2023-06-04T13:43:04;3.35;;;3.15;;
2416;SDS011;1219;48.736;9.330;2023-06-04T13:45:31;2.90;;;2.70;;
2416;SDS011;1219;48.736;9.330;2023-06-04T13:47:57;3.05;;;2.80;;
2416;SDS011;1219;48.736;9.330;2023-06-04T13:50:30;2.67;;;2.50;;
2416;SDS011;1219;48.736;9.330;2023-06-04T13:52:56;3.97;;;3.08;;
2416;SDS011;1219;48.736;9.330;2023-06-04T13:55:22;4.70;;;2.75;;
2416;SDS011;1219;48.736;9.330;2023-06-04T13:57:48;3.15;;;2.90;;
2416;SDS011;1219;48.736;9.330;2023-06-04T14:00:14;5.32;;;3.03;;
2416;SDS011;1219;48.736;9.330;2023-06-04T14:02:40;3.00;;;2.80;;
2416;SDS011;1219;48.736;9.330;2023-06-04T14:05:06;2.90;;;2.70;;
2416;SDS011;1219;48.736;9.330;2023-06-04T14:07:32;3.30;;;3.00;;
2416;SDS011;1219;48.736;9.330;2023-06-04T14:09:58;2.80;;;2.60;;
2416;SDS011;1219;48.736;9.330;2023-06-04T14:12:24;2.67;;;2.47;;
2416;SDS011;1219;48.736;9.330;2023-06-04T14:14:50;2.78;;;2.53;;
2416;SDS011;1219;48.736;9.330;2023-06-04T14:17:16;3.33;;;3.03;;
2416;SDS011;1219;48.736;9.330;2023-06-04T14:19:42;2.50;;;2.38;;
2416;SDS011;1219;48.736;9.330;2023-06-04T14:22:09;2.80;;;2.60;;
2416;SDS011;1219;48.736;9.330;2023-06-04T14:24:36;2.70;;;2.50;;
2416;SDS011;1219;48.736;9.330;2023-06-04T14:27:02;2.33;;;2.10;;
2416;SDS011;1219;48.736;9.330;2023-06-04T14:29:28;2.97;;;2.78;;
2416;SDS011;1219;48.736;9.330;2023-06-04T14:31:54;3.05;;;2.85;;
2416;SDS011;1219;48.736;9.330;2023-06-04T14:34:20;3.78;;;2.95;;
2416;SDS011;1219;48.736;9.330;2023-06-04T14:36:46;2.45;;;2.25;;
2416;SDS011;1219;48.736;9.330;2023-06-04T14:39:12;2.80;;;2.63;;
2416;SDS011;1219;48.736;9.330;2023-06-04T14:41:38;5.07;;;2.58;;
2416;SDS011;1219;48.736;9.330;2023-06-04T14:44:04;2.55;;;2.33;;
2416;SDS011;1219;48.736;9.330;2023-06-04T14:46:30;2.50;;;2.22;;
2416;SDS011;1219;48.736;9.330;2023-06-04T14:48:56;3.67;;;2.17;;
2416;SDS011;1219;48.736;9.330;2023-06-04T14:51:22;2.30;;;2.20;;
2416;SDS011;1219;48.736;9.330;2023-06-04T14:53:48;2.22;;;2.13;;
2416;SDS011;1219;48.736;9.330;2023-06-04T14:56:16;3.58;;;2.47;;
2416;SDS011;1219;48.736;9.330;2023-06-04T14:58:43;3.08;;;2.88;;
2416;SDS011;1219;48.736;9.330;2023-06-04T15:01:09;2.95;;;2.75;;
2416;SDS011;1219;48.736;9.330;2023-06-04T15:03:35;6.05;;;2.90;;
2416;SDS011;1219;48.736;9.330;2023-06-04T15:06:04;2.50;;;2.33;;
2416;SDS011;1219;48.736;9.330;2023-06-04T15:08:30;2.35;;;2.25;;
2416;SDS011;1219;48.736;9.330;2023-06-04T15:10:56;2.85;;;2.63;;
2416;SDS011;1219;48.736;9.330;2023-06-04T15:13:22;2.85;;;2.42;;
2416;SDS011;1219;48.736;9.330;2023-06-04T15:15:48;2.70;;;2.50;;
2416;SDS011;1219;48.736;9.330;2023-06-04T15:18:14;3.55;;;2.83;;
2416;SDS011;1219;48.736;9.330;2023-06-04T15:20:40;2.80;;;2.53;;